Time;durP1;ratioP1;P1;durP2;ratioP2;P2;SDS_P1;SDS_P2;PMS_P1;PMS_P2;Temp;Humidity;BMP_temperature;BMP_pressure;BME280_temperature;BME280_humidity;BME280_pressure;Samples;Min_cycle;Max_cycle;Signal;HPM_P1;HPM_P2
2022/03/21 00:00:59;;;;;;;3.95;2.03;;;;;;;1.27;78.06;103335.25;5098891;28;20042;-87
2022/03/21 00:03:29;;;;;;;5.75;2.13;;;;;;;1.26;78.30;103334.41;5071116;28;20035;-85
2022/03/21 00:05:56;;;;;;;6.07;2.33;;;;;;;1.23;78.20;103329.28;5097932;28;20051;-85
2022/03/21 00:08:22;;;;;;;5.63;2.60;;;;;;;1.23;78.01;103329.28;5071694;28;20051;-86
2022/03/21 00:10:49;;;;;;;7.28;2.28;;;;;;;1.20;78.96;103335.00;5079612;28;20059;-88
2022/03/21 00:13:15;;;;;;;3.25;1.90;;;;;;;1.19;79.32;103342.25;5083085;28;21334;-87
2022/03/21 00:15:52;;;;;;;2.83;2.33;;;;;;;1.15;79.02;103334.59;5080688;28;20488;-87
2022/03/21 00:18:20;;;;;;;5.22;2.40;;;;;;;1.14;79.31;103335.59;5064136;28;20037;-86
2022/03/21 00:20:49;;;;;;;7.80;2.38;;;;;;;1.19;79.24;103336.84;5098801;28;20091;-87
2022/03/21 00:23:15;;;;;;;3.50;2.22;;;;;;;1.19;78.64;103339.53;5101924;28;20047;-86
2022/03/21 00:25:41;;;;;;;3.80;2.20;;;;;;;1.18;79.27;103334.28;5081578;28;20126;-86
2022/03/21 00:28:08;;;;;;;4.32;2.03;;;;;;;1.16;79.07;103322.78;5078923;28;20032;-85
2022/03/21 00:30:35;;;;;;;4.47;2.08;;;;;;;1.10;78.87;103321.56;5070914;28;20042;-86
2022/03/21 00:33:00;;;;;;;3.80;1.98;;;;;;;1.07;78.75;103321.00;5079217;28;20112;-85
2022/03/21 00:35:28;;;;;;;4.65;2.50;;;;;;;1.10;79.08;103318.84;5080274;28;20055;-86
2022/03/21 00:37:53;;;;;;;5.57;2.35;;;;;;;1.15;79.67;103321.09;5078233;28;20032;-86
2022/03/21 00:40:19;;;;;;;6.57;2.65;;;;;;;1.22;79.08;103326.75;5079923;28;20028;-86
2022/03/21 00:42:46;;;;;;;4.85;2.83;;;;;;;1.16;79.03;103320.06;5079911;28;20060;-86
2022/03/21 00:45:17;;;;;;;6.18;2.35;;;;;;;1.07;79.03;103316.44;5079134;28;20091;-86
2022/03/21 00:47:44;;;;;;;5.28;2.72;;;;;;;1.10;79.04;103313.44;5097111;28;20043;-86
2022/03/21 00:50:11;;;;;;;4.95;2.05;;;;;;;1.23;78.80;103306.81;5095378;28;20672;-88
2022/03/21 00:52:41;;;;;;;5.15;2.42;;;;;;;1.29;78.76;103312.44;5075742;28;20443;-87
2022/03/21 00:55:09;;;;;;;4.40;2.65;;;;;;;1.21;78.83;103304.22;5078437;28;20058;-86
2022/03/21 00:57:35;;;;;;;6.03;2.50;;;;;;;1.16;78.65;103284.91;5098564;28;20425;-86
2022/03/21 01:00:08;;;;;;;6.18;2.22;;;;;;;1.27;78.66;103298.22;5063336;28;20299;-84
2022/03/21 01:02:35;;;;;;;5.43;2.33;;;;;;;1.34;78.59;103276.81;5083280;28;20058;-85
2022/03/21 01:05:01;;;;;;;5.93;2.60;;;;;;;1.44;77.99;103275.72;5084389;28;20057;-84
2022/03/21 01:07:28;;;;;;;5.07;2.00;;;;;;;1.49;77.92;103267.13;5101007;28;20089;-84
2022/03/21 01:09:54;;;;;;;6.47;2.20;;;;;;;1.42;77.39;103266.91;5100661;28;20032;-86
2022/03/21 01:12:20;;;;;;;4.25;2.63;;;;;;;1.40;77.29;103257.25;5079630;28;20085;-86
2022/03/21 01:14:45;;;;;;;5.63;2.67;;;;;;;1.41;77.58;103246.28;5081198;28;20032;-89
2022/03/21 01:17:11;;;;;;;4.75;2.35;;;;;;;1.36;77.43;103248.59;5098198;28;20040;-87
2022/03/21 01:19:36;;;;;;;5.22;2.20;;;;;;;1.31;77.27;103248.22;5081418;28;20043;-88
2022/03/21 01:22:02;;;;;;;4.38;2.40;;;;;;;1.24;77.32;103254.41;5094979;28;20058;-87
2022/03/21 01:24:28;;;;;;;3.60;2.38;;;;;;;1.12;77.17;103251.09;5078551;28;20044;-87
2022/03/21 01:26:53;;;;;;;5.28;2.22;;;;;;;0.98;77.80;103257.03;5080087;28;20085;-86
2022/03/21 01:29:19;;;;;;;5.13;2.13;;;;;;;0.90;77.83;103263.22;5082491;28;20036;-87
2022/03/21 01:31:45;;;;;;;5.93;2.42;;;;;;;0.89;78.08;103251.56;5083034;28;20032;-88
2022/03/21 01:34:11;;;;;;;6.18;2.22;;;;;;;0.78;78.54;103249.06;5099180;28;20039;-88
2022/03/21 01:36:36;;;;;;;4.15;2.30;;;;;;;0.79;78.97;103250.75;5095978;28;20036;-88
2022/03/21 01:39:02;;;;;;;3.28;2.05;;;;;;;0.78;78.97;103250.91;5090870;28;20036;-88
2022/03/21 01:41:28;;;;;;;5.53;2.10;;;;;;;0.84;79.14;103244.88;5106074;28;20068;-88
2022/03/21 01:44:06;;;;;;;5.75;2.42;;;;;;;0.84;78.82;103253.84;5112249;28;20032;-88
2022/03/21 01:46:32;;;;;;;5.88;2.55;;;;;;;0.85;79.07;103244.72;5111280;28;20039;-88
2022/03/21 01:48:58;;;;;;;3.95;2.08;;;;;;;0.85;79.04;103238.47;5084353;28;20048;-86
2022/03/21 01:51:25;;;;;;;2.83;2.17;;;;;;;0.81;78.95;103235.22;5092697;28;20145;-88
2022/03/21 01:56:38;;;;;;;4.22;2.20;;;;;;;0.86;78.73;103230.22;5084837;28;20039;-87
2022/03/21 01:59:04;;;;;;;5.88;2.58;;;;;;;0.95;79.55;103224.91;5078940;28;20032;-88
2022/03/21 02:01:30;;;;;;;4.55;2.50;;;;;;;1.11;78.98;103223.19;5086348;28;20590;-88
2022/03/21 02:03:55;;;;;;;5.13;2.58;;;;;;;1.10;78.47;103221.50;5086471;28;20082;-85
2022/03/21 02:06:21;;;;;;;4.07;2.47;;;;;;;1.02;78.60;103223.25;5110065;28;20040;-86
2022/03/21 02:08:47;;;;;;;4.43;2.28;;;;;;;0.92;78.20;103222.50;5091085;28;20134;-86
2022/03/21 02:11:15;;;;;;;4.35;2.10;;;;;;;0.85;78.84;103223.09;5099529;28;20047;-86
2022/03/21 02:13:41;;;;;;;3.97;2.10;;;;;;;0.86;78.52;103226.66;5062022;28;20047;-88
2022/03/21 02:16:08;;;;;;;7.95;2.97;;;;;;;0.86;78.28;103232.06;5103743;28;20126;-87
2022/03/21 02:18:36;;;;;;;4.97;2.63;;;;;;;0.78;77.91;103226.59;5080773;28;20036;-86
2022/03/21 02:21:02;;;;;;;6.30;2.60;;;;;;;0.74;78.74;103230.59;5079606;28;20038;-88
2022/03/21 02:23:52;;;;;;;3.70;2.13;;;;;;;0.61;78.52;103225.56;5113749;28;20052;-88
2022/03/21 02:26:19;;;;;;;4.38;2.50;;;;;;;0.64;78.80;103216.31;5064811;28;20036;-86
2022/03/21 02:28:46;;;;;;;6.30;2.30;;;;;;;0.63;79.37;103218.16;5077658;28;20181;-86
2022/03/21 02:31:13;;;;;;;6.57;2.55;;;;;;;0.72;79.17;103225.34;5067542;28;20066;-87
2022/03/21 02:33:39;;;;;;;5.47;2.38;;;;;;;0.77;78.59;103214.94;5084005;28;20050;-87
2022/03/21 02:36:06;;;;;;;4.47;2.80;;;;;;;0.89;78.96;103229.06;5076708;28;20046;-88
2022/03/21 02:38:32;;;;;;;4.80;2.60;;;;;;;1.03;78.39;103223.09;5094848;28;20048;-88
2022/03/21 02:40:58;;;;;;;7.05;2.67;;;;;;;0.97;78.41;103222.88;5088573;28;20130;-88
2022/03/21 02:43:23;;;;;;;7.45;2.90;;;;;;;0.94;78.32;103221.34;5114688;28;20039;-88
2022/03/21 02:45:49;;;;;;;5.13;2.60;;;;;;;1.05;77.79;103217.56;5115044;28;20045;-88
2022/03/21 02:48:16;;;;;;;6.35;2.58;;;;;;;1.05;77.74;103223.81;5115769;28;20532;-87
2022/03/21 02:51:00;;;;;;;4.30;2.60;;;;;;;1.18;77.37;103228.81;5095211;28;20048;-87
2022/03/21 02:53:28;;;;;;;4.68;2.80;;;;;;;1.19;77.10;103220.53;5076428;28;20035;-88
2022/03/21 02:55:55;;;;;;;4.80;2.65;;;;;;;1.12;77.31;103224.91;5108578;28;20039;-89
2022/03/21 02:58:21;;;;;;;6.22;2.67;;;;;;;1.13;77.34;103231.16;5114706;28;20039;-89
2022/03/21 03:00:46;;;;;;;4.50;2.85;;;;;;;1.10;76.68;103224.19;5103453;28;20040;-87
2022/03/21 03:03:12;;;;;;;4.03;2.97;;;;;;;1.06;76.78;103230.09;5110291;28;20046;-87
2022/03/21 03:05:38;;;;;;;6.93;3.10;;;;;;;1.14;77.33;103233.69;5106013;28;20085;-89
2022/03/21 03:08:03;;;;;;;9.80;2.88;;;;;;;1.17;76.66;103237.94;5077234;28;20127;-87
2022/03/21 03:10:30;;;;;;;7.60;3.25;;;;;;;1.06;76.57;103232.78;5055530;28;20485;-87
2022/03/21 03:12:56;;;;;;;5.22;3.10;;;;;;;1.00;76.62;103230.69;5102934;28;20538;-87
2022/03/21 03:15:21;;;;;;;4.63;2.50;;;;;;;0.90;76.98;103226.22;5107730;28;20119;-87
2022/03/21 03:17:47;;;;;;;4.93;2.53;;;;;;;0.88;76.69;103220.13;5118336;28;20039;-89
2022/03/21 03:20:13;;;;;;;4.43;2.90;;;;;;;0.95;76.69;103220.34;5096843;28;20043;-89
2022/03/21 03:22:39;;;;;;;5.40;2.95;;;;;;;0.96;76.69;103223.91;5081469;28;20036;-89
2022/03/21 03:25:05;;;;;;;5.05;2.95;;;;;;;0.93;76.98;103226.91;5081984;28;20040;-89
2022/03/21 03:27:31;;;;;;;4.95;3.00;;;;;;;1.00;76.98;103215.31;5083156;28;20040;-88
2022/03/21 03:29:58;;;;;;;6.50;2.95;;;;;;;1.00;76.36;103207.19;5082078;28;20039;-89
2022/03/21 03:32:24;;;;;;;9.15;2.90;;;;;;;1.03;76.44;103206.03;5094583;28;20119;-87
2022/03/21 03:34:51;;;;;;;6.57;2.83;;;;;;;1.08;76.19;103211.84;5114335;28;20039;-86
2022/03/21 03:37:16;;;;;;;5.15;2.92;;;;;;;1.03;76.46;103224.97;5114007;28;20134;-86
2022/03/21 03:39:42;;;;;;;6.32;2.55;;;;;;;1.02;76.15;103226.81;5101927;28;20089;-86
2022/03/21 03:42:08;;;;;;;7.20;3.03;;;;;;;0.93;75.75;103229.63;5103746;27;20047;-86
2022/03/21 03:44:34;;;;;;;8.77;3.17;;;;;;;0.85;75.97;103230.38;5116077;27;20031;-83
2022/03/21 03:46:59;;;;;;;5.53;3.63;;;;;;;0.74;76.04;103233.31;5110069;28;20058;-86
2022/03/21 03:49:26;;;;;;;7.47;3.22;;;;;;;0.67;76.08;103238.44;5078939;28;20520;-86
2022/03/21 03:51:52;;;;;;;6.15;3.03;;;;;;;0.65;76.45;103232.34;5096727;28;20054;-86
2022/03/21 03:54:18;;;;;;;5.32;2.67;;;;;;;0.63;76.58;103233.50;5111283;28;20043;-85
2022/03/21 03:57:10;;;;;;;6.20;3.08;;;;;;;0.63;76.72;103234.38;5099251;28;20039;-85
2022/03/21 03:59:36;;;;;;;4.38;2.75;;;;;;;0.59;76.96;103244.63;5082702;28;20135;-85
2022/03/21 04:02:02;;;;;;;5.47;3.10;;;;;;;0.45;76.89;103247.00;5105590;28;20162;-81
2022/03/21 04:04:28;;;;;;;6.22;3.10;;;;;;;0.51;77.52;103243.66;5094693;28;20040;-85
2022/03/21 04:06:54;;;;;;;4.65;2.72;;;;;;;0.59;77.33;103228.41;5101642;28;20498;-85
2022/03/21 04:09:19;;;;;;;5.15;3.00;;;;;;;0.74;77.12;103238.72;5095285;28;20040;-85
2022/03/21 04:11:45;;;;;;;4.63;3.05;;;;;;;0.84;77.00;103234.91;5069864;28;20105;-85
2022/03/21 04:14:10;;;;;;;8.25;3.33;;;;;;;0.99;76.38;103229.84;5092873;28;20063;-85
2022/03/21 04:16:36;;;;;;;5.15;2.92;;;;;;;0.89;76.33;103224.53;5102259;28;20153;-83
2022/03/21 04:19:02;;;;;;;4.85;3.40;;;;;;;0.98;76.12;103228.13;5079676;28;20035;-86
2022/03/21 04:21:28;;;;;;;9.52;3.33;;;;;;;1.27;75.46;103222.50;5073847;28;20066;-86
2022/03/21 04:23:56;;;;;;;6.22;3.00;;;;;;;1.58;75.04;103225.63;5074578;28;20087;-86
2022/03/21 04:26:21;;;;;;;6.07;3.00;;;;;;;2.01;74.15;103218.41;5100334;28;20531;-86
2022/03/21 04:28:49;;;;;;;6.50;3.47;;;;;;;2.33;73.17;103223.13;5112608;28;20043;-85
2022/03/21 04:31:15;;;;;;;8.57;3.97;;;;;;;2.31;72.22;103217.88;5107070;28;20502;-86
2022/03/21 04:33:41;;;;;;;6.07;3.88;;;;;;;2.54;71.62;103207.28;5084034;28;20298;-86
2022/03/21 04:36:07;;;;;;;5.78;3.53;;;;;;;3.01;70.62;103207.53;5079367;28;20035;-86
2022/03/21 04:38:33;;;;;;;7.20;4.40;;;;;;;3.51;69.25;103206.53;5097938;27;20490;-85
2022/03/21 04:40:58;;;;;;;8.07;4.22;;;;;;;3.94;67.65;103210.66;5111929;28;20114;-85
2022/03/21 04:43:24;;;;;;;9.52;4.28;;;;;;;4.31;66.51;103211.88;5076512;28;20525;-85
2022/03/21 04:45:49;;;;;;;6.50;3.58;;;;;;;4.61;65.36;103217.53;5085910;28;20040;-86
2022/03/21 04:48:15;;;;;;;5.65;3.33;;;;;;;4.87;64.28;103212.63;5093534;28;20053;-84
2022/03/21 04:50:41;;;;;;;5.85;3.30;;;;;;;5.14;62.49;103214.78;5093613;28;20466;-84
2022/03/21 04:53:08;;;;;;;4.90;3.22;;;;;;;5.41;62.33;103215.25;5096065;28;20085;-83
2022/03/21 04:55:34;;;;;;;6.97;3.38;;;;;;;5.78;60.60;103222.56;5082505;28;20440;-83
2022/03/21 04:58:00;;;;;;;5.80;2.90;;;;;;;6.11;59.76;103223.09;5096903;28;20044;-83
2022/03/21 05:00:26;;;;;;;5.60;3.00;;;;;;;6.46;57.93;103228.78;5083254;28;20032;-83
2022/03/21 05:02:52;;;;;;;4.10;2.75;;;;;;;6.75;57.39;103228.72;5091390;28;20036;-84
2022/03/21 05:05:17;;;;;;;4.32;2.75;;;;;;;7.07;56.02;103211.00;5092963;28;20128;-83
2022/03/21 05:07:52;;;;;;;4.03;2.72;;;;;;;7.35;54.90;103221.16;5104411;28;20050;-83
2022/03/21 05:10:18;;;;;;;5.70;3.10;;;;;;;7.60;54.22;103216.94;5074652;28;20126;-84
2022/03/21 05:12:44;;;;;;;8.38;3.15;;;;;;;7.93;53.79;103219.91;5093043;28;20071;-86
2022/03/21 05:15:10;;;;;;;5.90;2.53;;;;;;;8.21;52.39;103217.13;5076367;28;20513;-86
2022/03/21 05:17:35;;;;;;;5.32;2.80;;;;;;;8.44;51.93;103225.06;5083624;28;20594;-85
2022/03/21 05:20:08;;;;;;;6.85;2.83;;;;;;;8.69;50.93;103218.00;5077478;28;20043;-86
2022/03/21 05:22:35;;;;;;;7.07;2.55;;;;;;;8.99;50.07;103217.66;5088184;28;20695;-86
2022/03/21 05:35:59;;;;;;;5.90;2.40;;;;;;;10.11;45.65;103216.78;5093828;28;20036;-86
2022/03/21 05:38:26;;;;;;;5.47;2.90;;;;;;;10.14;46.30;103216.34;5074180;28;20047;-86
2022/03/21 05:40:56;;;;;;;7.72;2.78;;;;;;;10.37;46.02;103211.22;5091745;28;20402;-86
2022/03/21 05:43:23;;;;;;;6.43;2.05;;;;;;;10.60;44.88;103207.16;5088207;28;20042;-86
2022/03/21 05:45:49;;;;;;;7.22;2.30;;;;;;;10.86;44.13;103204.25;5075361;28;20042;-85
2022/03/21 05:51:00;;;;;;;5.32;2.53;;;;;;;11.25;43.91;103213.28;5090888;28;20410;-85
2022/03/21 05:53:25;;;;;;;4.82;2.20;;;;;;;11.47;42.75;103214.59;5083131;28;20040;-85
2022/03/21 05:55:51;;;;;;;3.90;2.40;;;;;;;11.73;42.38;103205.25;5092798;28;20051;-84
2022/03/21 05:58:17;;;;;;;4.18;2.22;;;;;;;11.93;42.46;103216.09;5101415;28;20035;-85
2022/03/21 06:00:42;;;;;;;5.10;2.45;;;;;;;12.06;41.54;103214.06;5110939;28;20063;-85
2022/03/21 06:03:13;;;;;;;5.65;2.58;;;;;;;12.09;41.56;103210.00;5113330;28;20043;-85
2022/03/21 06:05:40;;;;;;;6.07;2.58;;;;;;;12.21;41.38;103213.69;5114282;28;20063;-84
2022/03/21 06:08:08;;;;;;;8.25;2.78;;;;;;;12.42;40.96;103203.28;5099928;28;20449;-86
2022/03/21 06:10:36;;;;;;;6.40;2.88;;;;;;;12.57;40.00;103215.56;5106652;28;20074;-85
2022/03/21 06:13:05;;;;;;;4.25;2.40;;;;;;;12.60;40.36;103219.78;5077594;28;20770;-86
2022/03/21 06:15:32;;;;;;;7.55;3.10;;;;;;;12.66;39.92;103227.09;5100618;28;20031;-84
2022/03/21 06:17:59;;;;;;;8.18;2.80;;;;;;;12.66;39.41;103229.84;5080195;28;20043;-85
2022/03/21 06:20:26;;;;;;;5.22;2.63;;;;;;;12.71;39.22;103232.78;5110613;28;20032;-91
2022/03/21 06:22:53;;;;;;;4.85;2.75;;;;;;;12.87;39.20;103226.63;5102570;28;20076;-90
2022/03/21 06:25:18;;;;;;;3.58;2.38;;;;;;;12.92;38.63;103225.91;5100564;28;20054;-90
2022/03/21 06:27:44;;;;;;;3.80;2.50;;;;;;;13.10;38.65;103225.00;5084280;28;20032;-90
2022/03/21 06:30:10;;;;;;;5.20;2.88;;;;;;;13.30;37.80;103227.50;5102898;28;20035;-92
2022/03/21 06:32:37;;;;;;;5.18;2.65;;;;;;;13.46;37.64;103224.88;5101761;28;20028;-91
2022/03/21 06:35:04;;;;;;;5.00;2.30;;;;;;;13.48;37.87;103219.97;5109951;28;20204;-92
2022/03/21 06:37:31;;;;;;;3.90;2.30;;;;;;;13.60;37.13;103220.00;5099324;28;20495;-91
2022/03/21 06:39:57;;;;;;;4.68;2.58;;;;;;;13.70;37.47;103219.38;5078958;28;20074;-91
2022/03/21 06:42:22;;;;;;;6.50;2.88;;;;;;;13.81;37.25;103226.84;5089961;28;20040;-90
2022/03/21 06:44:49;;;;;;;5.32;2.63;;;;;;;13.89;36.44;103240.28;5083489;28;20039;-89
2022/03/21 06:47:15;;;;;;;6.55;3.20;;;;;;;14.09;36.25;103237.16;5111443;28;20100;-86
2022/03/21 06:49:41;;;;;;;5.80;3.03;;;;;;;14.30;35.96;103238.44;5107180;28;20130;-86
2022/03/21 06:52:08;;;;;;;6.63;3.75;;;;;;;14.47;35.72;103239.41;5109941;28;20122;-86
2022/03/21 06:54:35;;;;;;;9.75;4.07;;;;;;;14.61;35.24;103240.81;5060241;28;20032;-85
2022/03/21 06:57:00;;;;;;;6.90;3.88;;;;;;;14.61;35.16;103234.44;5104849;28;20512;-85
2022/03/21 06:59:26;;;;;;;10.50;4.35;;;;;;;14.64;35.08;103236.72;5094002;28;20040;-93
2022/03/21 07:01:52;;;;;;;5.68;3.30;;;;;;;14.89;34.55;103244.66;5081992;28;20051;-83
2022/03/21 07:04:17;;;;;;;10.20;3.45;;;;;;;15.03;34.05;103240.53;5104518;27;20448;-86
2022/03/21 07:06:43;;;;;;;8.90;3.55;;;;;;;15.17;34.34;103243.81;5099736;27;20031;-90
2022/03/21 07:09:09;;;;;;;5.97;3.33;;;;;;;15.39;33.24;103237.31;5083710;28;20039;-87
2022/03/21 07:11:35;;;;;;;5.18;3.03;;;;;;;15.32;33.75;103233.03;5093958;28;20036;-85
2022/03/21 07:14:01;;;;;;;4.90;3.00;;;;;;;15.58;33.02;103245.38;5082141;28;20062;-80
2022/03/21 07:16:27;;;;;;;9.50;3.60;;;;;;;15.80;33.02;103231.66;5099787;27;20043;-79
2022/03/21 07:18:53;;;;;;;6.78;3.00;;;;;;;16.06;32.53;103230.09;5112770;27;20044;-81
2022/03/21 07:21:19;;;;;;;5.43;2.80;;;;;;;16.29;32.45;103239.00;5092976;28;20040;-81
2022/03/21 07:23:46;;;;;;;4.40;2.63;;;;;;;16.46;32.13;103238.94;5096636;28;20063;-82
2022/03/21 07:26:13;;;;;;;5.25;3.35;;;;;;;16.67;32.17;103231.78;5113361;28;20390;-82
2022/03/21 07:28:38;;;;;;;5.27;2.77;;;;;;;16.72;31.81;103236.53;5096377;28;20035;-81
2022/03/21 07:31:09;;;;;;;5.25;2.33;;;;;;;16.80;31.47;103228.56;5129226;27;20037;-81
2022/03/21 07:33:38;;;;;;;6.13;2.58;;;;;;;16.98;31.21;103232.94;5131257;27;20027;-82
2022/03/21 07:36:04;;;;;;;5.95;2.55;;;;;;;17.11;31.11;103235.28;5107418;27;20035;-82
2022/03/21 07:38:30;;;;;;;7.10;2.92;;;;;;;17.33;30.79;103231.59;5076603;28;20093;-82
2022/03/21 07:40:57;;;;;;;4.60;2.53;;;;;;;17.33;30.55;103234.38;5104208;28;20066;-84
2022/03/21 07:43:22;;;;;;;8.40;3.08;;;;;;;17.56;30.41;103238.75;5099799;28;20039;-84
2022/03/21 07:48:32;;;;;;;10.52;2.72;;;;;;;18.17;29.40;103244.75;5107730;28;20043;-79
2022/03/21 07:50:58;;;;;;;6.68;3.17;;;;;;;18.40;29.23;103247.13;5098476;28;20086;-81
2022/03/21 07:53:24;;;;;;;9.00;2.72;;;;;;;18.52;28.91;103246.88;5076987;28;20055;-83
2022/03/21 07:55:50;;;;;;;9.82;3.03;;;;;;;18.50;28.61;103237.97;5078371;28;20032;-81
2022/03/21 07:58:16;;;;;;;6.05;2.38;;;;;;;18.39;28.74;103243.50;5092271;28;20036;-81
2022/03/21 08:00:41;;;;;;;5.65;2.58;;;;;;;18.47;28.28;103246.88;5074684;28;20032;-82
2022/03/21 08:03:15;;;;;;;8.00;2.25;;;;;;;18.33;28.12;103241.81;5091988;28;20042;-82
2022/03/21 08:05:41;;;;;;;5.85;2.45;;;;;;;18.63;28.26;103237.53;5092474;28;20123;-82
2022/03/21 08:08:07;;;;;;;4.43;2.50;;;;;;;18.92;27.44;103241.53;5083157;28;20046;-82
2022/03/21 08:10:33;;;;;;;4.18;2.85;;;;;;;18.97;27.86;103241.53;5112461;28;20050;-82
2022/03/21 08:12:59;;;;;;;5.78;2.17;;;;;;;19.07;27.50;103237.06;5103353;28;20405;-82
2022/03/21 08:15:28;;;;;;;6.32;2.35;;;;;;;19.45;27.11;103238.53;5086543;28;20494;-82
2022/03/21 08:17:59;;;;;;;7.35;2.72;;;;;;;19.54;26.81;103221.00;5093619;28;20506;-82
2022/03/21 08:20:33;;;;;;;6.57;2.47;;;;;;;19.55;26.64;103231.03;5094491;28;20124;-81
2022/03/21 08:23:05;;;;;;;6.60;2.60;;;;;;;19.67;26.74;103233.53;5101268;28;20101;-83
2022/03/21 08:25:32;;;;;;;6.40;2.92;;;;;;;19.94;26.31;103221.22;5092156;28;20067;-83
2022/03/21 08:27:57;;;;;;;6.00;2.67;;;;;;;20.27;25.84;103228.94;5054994;28;20035;-82
2022/03/21 08:30:23;;;;;;;5.70;2.40;;;;;;;20.60;25.35;103230.22;5089981;28;20051;-82
2022/03/21 08:32:49;;;;;;;7.57;2.45;;;;;;;20.46;25.27;103232.78;5110525;28;20039;-82
2022/03/21 08:35:17;;;;;;;5.47;2.60;;;;;;;20.43;26.00;103241.75;5112057;28;20049;-82
2022/03/21 08:37:42;;;;;;;7.35;2.55;;;;;;;20.96;25.10;103230.88;5101695;28;20252;-82
2022/03/21 08:40:09;;;;;;;10.57;2.67;;;;;;;20.89;24.70;103230.38;5091673;28;20048;-82
2022/03/21 08:42:36;;;;;;;4.97;2.10;;;;;;;20.61;24.78;103231.91;5052278;28;20036;-83
2022/03/21 08:45:03;;;;;;;5.35;3.10;;;;;;;20.36;25.09;103232.00;5108833;27;20027;-82
2022/03/21 08:47:28;;;;;;;5.65;2.47;;;;;;;20.10;25.33;103229.25;5112119;28;20040;-80
2022/03/21 08:49:54;;;;;;;6.40;2.13;;;;;;;20.04;25.60;103230.41;5094540;28;20448;-80
2022/03/21 08:52:21;;;;;;;6.85;2.97;;;;;;;20.18;25.20;103225.91;5092171;28;20541;-79
2022/03/21 08:54:46;;;;;;;6.70;2.55;;;;;;;19.86;25.73;103231.84;5105784;28;20035;-82
2022/03/21 08:57:12;;;;;;;5.80;2.63;;;;;;;19.94;25.57;103233.19;5110934;28;20084;-81
2022/03/21 08:59:38;;;;;;;5.93;2.00;;;;;;;19.42;25.75;103239.06;5091665;28;20040;-82
2022/03/21 09:02:04;;;;;;;4.43;2.00;;;;;;;19.28;26.14;103238.78;5097956;28;20044;-81
2022/03/21 09:04:30;;;;;;;5.88;2.20;;;;;;;19.17;25.76;103232.38;5076064;28;20153;-83
2022/03/21 09:06:55;;;;;;;5.45;2.10;;;;;;;18.97;26.21;103238.75;5095691;28;20036;-82
2022/03/21 09:09:21;;;;;;;5.22;1.98;;;;;;;19.37;25.89;103236.28;5081668;28;20038;-83
2022/03/21 09:11:47;;;;;;;4.68;1.88;;;;;;;19.61;25.54;103231.84;5106317;27;20032;-90
2022/03/21 09:14:13;;;;;;;5.18;2.35;;;;;;;18.29;26.62;103220.38;5061516;28;20057;-85
2022/03/21 09:16:39;;;;;;;2.95;1.88;;;;;;;16.75;28.14;103227.69;5058589;28;20494;-83
2022/03/21 09:19:06;;;;;;;7.70;2.95;;;;;;;15.86;29.22;103231.47;5094141;28;20127;-84
2022/03/21 09:21:31;;;;;;;3.95;2.05;;;;;;;15.05;30.16;103230.03;5114445;27;20042;-83
2022/03/21 09:23:57;;;;;;;5.60;2.30;;;;;;;14.19;31.04;103229.94;5097472;27;20518;-89
2022/03/21 09:26:23;;;;;;;7.53;2.00;;;;;;;13.67;32.73;103234.50;5099936;28;20048;-83
2022/03/21 09:28:49;;;;;;;3.45;2.05;;;;;;;13.28;33.12;103231.31;5096430;28;20036;-78
2022/03/21 09:31:16;;;;;;;5.30;2.35;;;;;;;12.71;33.95;103229.19;5110732;27;20091;-83
2022/03/21 09:33:42;;;;;;;5.18;2.67;;;;;;;12.11;35.11;103227.13;5107621;27;20028;-82
2022/03/21 09:36:09;;;;;;;6.90;3.22;;;;;;;11.67;36.32;103222.69;5104810;27;20047;-82
2022/03/21 09:38:36;;;;;;;5.10;2.63;;;;;;;11.31;36.31;103220.66;5121193;27;20171;-84
2022/03/21 09:41:03;;;;;;;4.88;2.45;;;;;;;10.88;37.83;103213.09;5099646;27;20501;-81
2022/03/21 09:43:29;;;;;;;4.32;2.00;;;;;;;10.58;38.21;103219.16;5118490;27;20036;-82
2022/03/21 09:45:57;;;;;;;4.30;2.13;;;;;;;10.26;38.93;103220.16;5098424;27;20092;-81
2022/03/21 09:48:25;;;;;;;6.40;2.22;;;;;;;10.00;38.94;103220.19;5105272;27;20047;-87
2022/03/21 09:50:52;;;;;;;6.38;1.88;;;;;;;9.93;39.08;103214.72;5098042;27;20521;-88
2022/03/21 09:53:18;;;;;;;4.68;1.88;;;;;;;9.87;39.62;103221.88;5128952;27;20043;-82
2022/03/21 09:55:45;;;;;;;4.50;1.95;;;;;;;9.76;40.09;103213.47;5102443;28;20036;-87
2022/03/21 09:58:11;;;;;;;4.28;1.75;;;;;;;9.69;39.77;103224.44;5091001;27;20040;-90
2022/03/21 10:00:40;;;;;;;4.47;2.25;;;;;;;9.60;39.79;103228.47;5111438;27;20179;-90
2022/03/21 10:03:06;;;;;;;2.53;1.80;;;;;;;9.56;40.73;103219.84;5108116;27;20032;-88
2022/03/21 10:05:32;;;;;;;4.07;2.00;;;;;;;9.57;40.29;103218.78;5107100;27;20040;-88
2022/03/21 10:08:09;;;;;;;5.32;2.22;;;;;;;9.58;40.74;103225.09;5107384;27;20035;-88
2022/03/21 10:10:35;;;;;;;5.00;2.33;;;;;;;9.58;40.84;103225.09;5087850;28;20084;-89
2022/03/21 10:13:02;;;;;;;6.05;2.42;;;;;;;9.60;40.70;103220.25;5090957;28;20028;-91
2022/03/21 10:15:29;;;;;;;4.65;2.08;;;;;;;9.62;40.59;103220.88;5112135;27;20122;-92
2022/03/21 10:18:08;;;;;;;4.38;2.20;;;;;;;9.61;40.57;103217.28;5106816;27;20131;-93
2022/03/21 10:20:35;;;;;;;6.25;2.33;;;;;;;9.65;41.18;103224.03;5102979;28;20043;-91
2022/03/21 10:23:18;;;;;;;6.63;2.28;;;;;;;9.60;40.70;103228.47;5093009;28;20044;-92
2022/03/21 10:25:44;;;;;;;8.23;3.10;;;;;;;9.60;41.07;103220.25;5091369;28;20040;-90
2022/03/21 10:28:11;;;;;;;5.38;2.03;;;;;;;9.64;41.65;103222.34;5113387;28;20104;-86
2022/03/21 10:30:44;;;;;;;4.78;1.63;;;;;;;9.62;41.51;103226.34;5099576;28;20458;-88
2022/03/21 10:33:10;;;;;;;4.63;2.00;;;;;;;9.55;41.71;103226.38;5107537;28;20085;-87
2022/03/21 10:35:45;;;;;;;5.00;2.30;;;;;;;9.48;41.97;103221.91;5093989;28;20122;-89
2022/03/21 10:38:11;;;;;;;4.85;2.30;;;;;;;9.46;41.54;103218.56;5096317;28;20032;-89
2022/03/21 10:40:47;;;;;;;3.47;1.70;;;;;;;9.40;41.50;103219.41;5082348;28;20038;-90
2022/03/21 10:43:15;;;;;;;5.10;1.73;;;;;;;9.30;42.26;103217.91;5105678;28;20047;-89
2022/03/21 10:45:42;;;;;;;6.80;1.70;;;;;;;9.18;42.13;103222.31;5089269;28;20048;-84
2022/03/21 10:48:24;;;;;;;4.60;2.30;;;;;;;9.18;42.08;103216.00;5090291;28;20302;-87
2022/03/21 10:50:52;;;;;;;7.25;3.47;;;;;;;9.26;42.62;103208.44;5094665;28;20114;-91
2022/03/21 10:53:22;;;;;;;4.80;2.23;;;;;;;9.30;42.79;103208.84;5104246;28;20093;-91
2022/03/21 10:55:50;;;;;;;5.93;2.35;;;;;;;9.32;42.20;103202.09;5116495;28;20285;-90
2022/03/21 10:58:17;;;;;;;5.07;2.00;;;;;;;9.36;42.66;103206.09;5095090;28;20040;-93
2022/03/21 11:00:43;;;;;;;6.60;2.13;;;;;;;9.46;43.15;103207.59;5092099;28;20032;-91
2022/03/21 11:03:13;;;;;;;6.18;2.63;;;;;;;9.53;42.85;103200.19;5105944;28;20040;-91
2022/03/21 11:05:41;;;;;;;4.40;2.28;;;;;;;9.56;42.32;103197.06;5102567;28;20065;-92
2022/03/21 11:08:10;;;;;;;7.78;2.53;;;;;;;9.61;42.70;103203.59;5108993;28;20056;-90
2022/03/21 11:10:36;;;;;;;9.15;3.17;;;;;;;9.62;43.40;103197.03;5080279;28;20122;-91
2022/03/21 11:13:04;;;;;;;6.00;2.67;;;;;;;9.66;43.14;103191.97;5106359;28;20028;-85
2022/03/21 11:15:30;;;;;;;7.15;2.50;;;;;;;9.76;42.94;103194.28;5087137;28;20083;-85
2022/03/21 11:17:57;;;;;;;7.00;2.80;;;;;;;9.83;42.83;103193.22;5098603;28;20093;-84
2022/03/21 11:20:25;;;;;;;7.15;2.55;;;;;;;9.92;42.77;103194.69;5108750;28;20035;-83
2022/03/21 11:22:52;;;;;;;5.68;2.75;;;;;;;10.00;42.40;103192.75;5088371;27;20035;-84
2022/03/21 11:25:18;;;;;;;9.40;3.00;;;;;;;10.01;42.83;103199.91;5117475;27;20043;-85
2022/03/21 11:27:44;;;;;;;7.40;3.40;;;;;;;9.93;42.14;103195.53;5120272;27;20078;-84
2022/03/21 11:30:22;;;;;;;5.40;2.67;;;;;;;9.96;42.77;103192.34;5117029;27;20043;-83
2022/03/21 11:33:03;;;;;;;9.38;3.67;;;;;;;9.93;42.29;103185.41;5128119;27;20027;-83
2022/03/21 11:35:30;;;;;;;5.43;2.45;;;;;;;9.97;42.75;103183.91;5102303;27;20043;-84
2022/03/21 11:38:24;;;;;;;6.15;2.58;;;;;;;9.94;42.52;103197.22;5118248;27;20447;-83
2022/03/21 11:40:50;;;;;;;5.15;2.63;;;;;;;9.94;42.90;103189.81;5100453;27;20042;-83
2022/03/21 11:43:19;;;;;;;8.73;2.67;;;;;;;9.95;42.76;103186.03;5120648;27;20146;-83
2022/03/21 11:45:46;;;;;;;7.30;2.78;;;;;;;9.88;42.53;103189.81;5107103;28;20035;-84
2022/03/21 11:48:17;;;;;;;8.13;2.50;;;;;;;9.78;43.27;103187.53;5135783;27;20528;-83